X  Close Metar Aviation Weather Data        KHVN Tween New Haven Airport
Temperature
58°F Temperature
56°F Dewpoint
93% Humidity



Wind
6 MPH
9 KM/H
3 M/S
5 KTS



210°
SSW
Current Conditions

Cloudy Cloudy
Pressure 1016 (hPa) - 29.99 (inHg)
Visibility 10 (mile) - 16 (km)
Airport
Airport-code KHVN

Location: Tween New Haven Airport
Distance: 7 (mi)

Metar:
METAR KHVN 210853Z AUTO 21005KT 10SM OVC006 14/13 A3000 RMK AO2 SLP157 T01440133 56003

Time: 05-21-2024 04:53 EDT